createdAt,value
2016-07-29T00:00:00.447Z,18.7
2016-07-29T00:01:00.398Z,18.73
2016-07-29T00:02:00.402Z,18.68
2016-07-29T00:03:00.402Z,18.73
2016-07-29T00:04:00.407Z,18.68
2016-07-29T00:04:59.694Z,18.68
2016-07-29T00:05:59.694Z,18.67
2016-07-29T00:07:00.411Z,18.73
2016-07-29T00:08:00.411Z,18.71
2016-07-29T00:09:18.938Z,18.7
2016-07-29T00:10:00.414Z,18.81
2016-07-29T00:11:00.414Z,18.71
2016-07-29T00:12:00.414Z,18.7
2016-07-29T00:13:00.418Z,18.71
2016-07-29T00:14:00.418Z,18.58
2016-07-29T00:15:00.419Z,18.57
2016-07-29T00:16:00.470Z,18.55
2016-07-29T00:16:59.962Z,18.48
2016-07-29T00:18:00.422Z,18.55
2016-07-29T00:19:19.667Z,18.57
2016-07-29T00:21:00.430Z,18.58
2016-07-29T00:22:00.430Z,18.53
2016-07-29T00:23:00.430Z,18.57
2016-07-29T00:24:00.430Z,18.57
2016-07-29T00:25:00.435Z,18.52
2016-07-29T00:26:00.433Z,18.57
2016-07-29T00:27:00.434Z,18.49
2016-07-29T00:28:00.438Z,18.6
2016-07-29T00:29:10.738Z,18.46
2016-07-29T00:30:00.438Z,18.58
2016-07-29T00:31:00.442Z,18.57
2016-07-29T00:32:00.495Z,18.52
2016-07-29T00:33:00.442Z,18.49
2016-07-29T00:34:00.451Z,18.51
2016-07-29T00:35:00.494Z,18.55
2016-07-29T00:36:00.446Z,18.52
2016-07-29T00:37:00.447Z,18.51
2016-07-29T00:38:00.451Z,18.63
2016-07-29T00:39:00.451Z,18.63
2016-07-29T00:40:00.450Z,18.64
2016-07-29T00:41:00.475Z,18.66
2016-07-29T00:41:59.779Z,18.61
2016-07-29T00:43:00.459Z,18.6
2016-07-29T00:44:00.458Z,18.61
2016-07-29T00:45:44.595Z,18.58
2016-07-29T00:46:00.459Z,18.66
2016-07-29T00:48:00.341Z,18.61
2016-07-29T00:49:00.337Z,18.63
2016-07-29T00:50:00.345Z,18.61
2016-07-29T00:51:00.341Z,18.66
2016-07-29T00:52:00.340Z,18.61
2016-07-29T00:53:00.349Z,18.51
2016-07-29T00:54:00.345Z,18.52
2016-07-29T00:55:00.344Z,18.55
2016-07-29T00:56:00.349Z,18.45
2016-07-29T00:57:00.356Z,18.41
2016-07-29T00:58:00.349Z,18.43
2016-07-29T00:58:59.653Z,18.42
2016-07-29T01:00:00.353Z,18.34
2016-07-29T01:01:00.353Z,18.37
2016-07-29T01:02:59.665Z,18.28
2016-07-29T01:04:00.360Z,18.21
2016-07-29T01:05:00.362Z,18.3
2016-07-29T01:06:00.365Z,18.23
2016-07-29T01:07:00.369Z,18.26
2016-07-29T01:08:00.362Z,18.12
2016-07-29T01:09:00.361Z,18.16
2016-07-29T01:10:00.366Z,18.11
2016-07-29T01:11:00.373Z,18.13
2016-07-29T01:11:59.673Z,18.11
2016-07-29T01:13:00.369Z,18
2016-07-29T01:14:00.370Z,17.93
2016-07-29T01:14:59.676Z,17.97
2016-07-29T01:16:00.373Z,17.93
2016-07-29T01:18:00.374Z,17.91
2016-07-29T01:19:00.373Z,18
2016-07-29T01:20:00.377Z,17.95
2016-07-29T01:21:00.377Z,17.91
2016-07-29T01:22:00.378Z,17.94
2016-07-29T01:23:00.382Z,17.97
2016-07-29T01:24:00.381Z,18
2016-07-29T01:25:00.382Z,18.02
2016-07-29T01:26:00.385Z,18.11
2016-07-29T01:27:00.386Z,18.12
2016-07-29T01:28:00.392Z,18.09
2016-07-29T01:29:00.397Z,18.13
2016-07-29T01:30:00.389Z,18.26
2016-07-29T01:31:00.389Z,18.24
2016-07-29T01:32:00.390Z,18.34
2016-07-29T01:33:00.393Z,18.27
2016-07-29T01:34:00.402Z,18.34
2016-07-29T01:35:00.403Z,18.36
2016-07-29T01:36:00.398Z,18.45
2016-07-29T01:37:00.397Z,18.42
2016-07-29T01:38:00.409Z,18.42
2016-07-29T01:39:00.398Z,18.41
2016-07-29T01:40:00.402Z,18.41
2016-07-29T01:41:00.403Z,18.48
2016-07-29T01:42:00.405Z,18.45
2016-07-29T01:42:59.710Z,18.45
2016-07-29T01:44:00.409Z,18.42
2016-07-29T01:44:59.710Z,18.48
2016-07-29T01:46:00.409Z,18.45
2016-07-29T01:47:00.411Z,18.37
2016-07-29T01:48:00.410Z,18.31
2016-07-29T01:49:00.415Z,18.43
2016-07-29T01:50:00.409Z,18.34
2016-07-29T01:50:59.723Z,18.41
2016-07-29T01:52:00.414Z,18.43
2016-07-29T01:53:00.418Z,18.42
2016-07-29T01:53:59.722Z,18.37
2016-07-29T01:55:00.418Z,18.34
2016-07-29T01:56:00.423Z,18.39
2016-07-29T01:57:00.417Z,18.45
2016-07-29T01:58:00.422Z,18.43
2016-07-29T01:58:59.731Z,18.43
2016-07-29T02:00:00.422Z,18.45
2016-07-29T02:01:00.427Z,18.39
2016-07-29T02:02:00.435Z,18.46
2016-07-29T02:03:00.444Z,18.39
2016-07-29T02:03:59.735Z,18.45
2016-07-29T02:05:00.430Z,18.41
2016-07-29T02:06:00.434Z,18.46
2016-07-29T02:06:59.734Z,18.31
2016-07-29T02:08:00.431Z,18.36
2016-07-29T02:09:00.435Z,18.36
2016-07-29T02:10:00.435Z,18.34
2016-07-29T02:11:00.435Z,18.26
2016-07-29T02:12:00.438Z,18.33
2016-07-29T02:12:59.751Z,18.33
2016-07-29T02:14:00.490Z,18.41
2016-07-29T02:15:00.495Z,18.39
2016-07-29T02:16:00.499Z,18.36
2016-07-29T02:16:59.795Z,18.37
2016-07-29T02:18:00.499Z,18.41
2016-07-29T02:19:00.499Z,18.43
2016-07-29T02:20:00.503Z,18.41
2016-07-29T02:21:00.503Z,18.45
2016-07-29T02:22:00.504Z,18.33
2016-07-29T02:23:00.504Z,18.43
2016-07-29T02:24:00.520Z,18.33
2016-07-29T02:25:00.507Z,18.45
2016-07-29T02:26:00.511Z,18.36
2016-07-29T02:27:00.516Z,18.43
2016-07-29T02:28:00.511Z,18.36
2016-07-29T02:29:00.512Z,18.37
2016-07-29T02:29:59.807Z,18.36
2016-07-29T02:31:00.516Z,18.33
2016-07-29T02:32:00.525Z,18.24
2016-07-29T02:33:00.516Z,18.24
2016-07-29T02:34:00.515Z,18.24
2016-07-29T02:35:00.519Z,18.3
2016-07-29T02:36:00.520Z,18.21
2016-07-29T02:37:00.520Z,18.21
2016-07-29T02:38:00.520Z,18.24
2016-07-29T02:39:00.524Z,18.23
2016-07-29T02:40:00.524Z,18.18
2016-07-29T02:41:00.540Z,18.21
2016-07-29T02:42:00.524Z,18.26
2016-07-29T02:43:00.529Z,18.21
2016-07-29T02:43:59.824Z,18.21
2016-07-29T02:45:00.529Z,18.24
2016-07-29T02:46:00.529Z,18.24
2016-07-29T02:47:00.581Z,18.24
2016-07-29T02:48:00.533Z,18.24
2016-07-29T02:49:00.532Z,18.15
2016-07-29T02:50:00.533Z,18.13
2016-07-29T02:51:00.540Z,18.13
2016-07-29T02:52:00.537Z,18.03
2016-07-29T02:53:00.536Z,18.13
2016-07-29T02:54:00.541Z,18.08
2016-07-29T02:55:00.541Z,18.06
2016-07-29T02:56:00.541Z,18.11
2016-07-29T02:57:00.537Z,18.12
2016-07-29T02:58:00.545Z,18.13
2016-07-29T02:59:00.544Z,18.12
2016-07-29T03:00:00.545Z,18.08
2016-07-29T03:01:00.545Z,18.09
2016-07-29T03:02:00.549Z,18.18
2016-07-29T03:03:00.548Z,18.23
2016-07-29T03:04:00.549Z,18.18
2016-07-29T03:05:00.562Z,18.26
2016-07-29T03:06:00.548Z,18.28
2016-07-29T03:07:00.553Z,18.36
2016-07-29T03:08:00.553Z,18.34
2016-07-29T03:09:00.554Z,18.45
2016-07-29T03:10:00.553Z,18.31
2016-07-29T03:11:00.558Z,18.34
2016-07-29T03:12:00.562Z,18.46
2016-07-29T03:13:00.557Z,18.39
2016-07-29T03:14:00.566Z,18.42
2016-07-29T03:15:00.561Z,18.33
2016-07-29T03:16:00.562Z,18.45
2016-07-29T03:17:00.562Z,18.42
2016-07-29T03:18:00.566Z,18.39
2016-07-29T03:19:00.570Z,18.45
2016-07-29T03:20:00.566Z,18.42
2016-07-29T03:21:00.572Z,18.37
2016-07-29T03:22:00.569Z,18.49
2016-07-29T03:23:00.570Z,18.42
2016-07-29T03:24:00.569Z,18.37
2016-07-29T03:25:00.569Z,18.33
2016-07-29T03:25:59.870Z,18.27
2016-07-29T03:27:00.574Z,18.36
2016-07-29T03:28:00.574Z,18.3
2016-07-29T03:29:00.573Z,18.3
2016-07-29T03:30:00.577Z,18.36
2016-07-29T03:31:00.577Z,18.27
2016-07-29T03:32:00.578Z,18.3
2016-07-29T03:33:00.577Z,18.26
2016-07-29T03:34:00.585Z,18.28
2016-07-29T03:35:00.586Z,18.28
2016-07-29T03:36:00.582Z,18.23
2016-07-29T03:37:00.582Z,18.18
2016-07-29T03:38:00.586Z,18.18
2016-07-29T03:39:00.585Z,18.11
2016-07-29T03:40:00.594Z,18.13
2016-07-29T03:41:00.586Z,18.15
2016-07-29T03:42:00.586Z,18.11
2016-07-29T03:43:00.590Z,18.09
2016-07-29T03:44:00.589Z,18.08
2016-07-29T03:45:00.590Z,18.08
2016-07-29T03:46:00.590Z,18.08
2016-07-29T03:47:00.594Z,18.09
2016-07-29T03:48:00.590Z,18.11
2016-07-29T03:49:00.594Z,18.08
2016-07-29T03:50:00.594Z,18.12
2016-07-29T03:51:00.598Z,18.02
2016-07-29T03:52:00.598Z,18.05
2016-07-29T03:53:00.606Z,18.02
2016-07-29T03:54:00.598Z,18.02
2016-07-29T03:55:00.611Z,17.97
2016-07-29T03:56:00.603Z,17.94
2016-07-29T03:57:00.603Z,17.93
2016-07-29T03:58:00.602Z,17.91
2016-07-29T03:59:00.606Z,17.91
2016-07-29T04:00:00.606Z,17.95
2016-07-29T04:01:00.607Z,17.93
2016-07-29T04:02:00.607Z,17.94
2016-07-29T04:03:00.611Z,17.88
2016-07-29T04:04:00.611Z,17.86
2016-07-29T04:05:00.610Z,17.9
2016-07-29T04:06:00.611Z,17.87
2016-07-29T04:07:00.613Z,17.9
2016-07-29T04:08:00.614Z,17.94
2016-07-29T04:09:00.614Z,17.94
2016-07-29T04:10:00.614Z,17.98
2016-07-29T04:11:00.618Z,18.02
2016-07-29T04:12:00.618Z,18.03
2016-07-29T04:13:00.619Z,17.97
2016-07-29T04:14:00.619Z,17.93
2016-07-29T04:15:00.634Z,18.05
2016-07-29T04:16:00.622Z,18
2016-07-29T04:17:00.623Z,18.03
2016-07-29T04:18:00.163Z,18.05
2016-07-29T04:19:00.623Z,18.12
2016-07-29T04:20:00.634Z,18.15
2016-07-29T04:21:00.626Z,18.24
2016-07-29T04:22:00.627Z,18.24
2016-07-29T04:23:00.630Z,18.39
2016-07-29T04:24:00.631Z,18.27
2016-07-29T04:25:00.630Z,18.36
2016-07-29T04:25:59.926Z,18.39
2016-07-29T04:27:00.631Z,18.42
2016-07-29T04:28:00.635Z,18.34
2016-07-29T04:29:00.635Z,18.34
2016-07-29T04:30:00.639Z,18.34
2016-07-29T04:31:00.635Z,18.43
2016-07-29T04:32:00.638Z,18.42
2016-07-29T04:32:59.467Z,18.34
2016-07-29T04:34:00.638Z,18.34
2016-07-29T04:35:00.639Z,18.39
2016-07-29T04:36:00.639Z,18.31
2016-07-29T04:37:00.643Z,18.3
2016-07-29T04:38:00.655Z,18.33
2016-07-29T04:39:00.643Z,18.36
2016-07-29T04:40:00.643Z,18.37
2016-07-29T04:41:00.639Z,18.34
2016-07-29T04:42:00.656Z,18.42
2016-07-29T04:43:00.648Z,18.46
2016-07-29T04:44:00.651Z,18.6
2016-07-29T04:45:00.647Z,18.6
2016-07-29T04:46:00.652Z,18.57
2016-07-29T04:47:00.651Z,18.63
2016-07-29T04:49:00.655Z,18.7
2016-07-29T04:50:00.656Z,18.68
2016-07-29T04:51:00.672Z,18.71
2016-07-29T04:52:00.655Z,18.79
2016-07-29T04:53:00.660Z,18.83
2016-07-29T04:54:00.660Z,18.78
2016-07-29T04:55:00.659Z,18.85
2016-07-29T04:56:00.660Z,18.89
2016-07-29T04:57:00.659Z,19
2016-07-29T04:57:59.968Z,19.08
2016-07-29T04:59:00.664Z,19.07
2016-07-29T05:00:00.659Z,19.12
2016-07-29T05:01:00.667Z,19.09
2016-07-29T05:02:00.668Z,19.19
2016-07-29T05:04:00.668Z,19.29
2016-07-29T05:05:00.672Z,19.3
2016-07-29T05:06:00.672Z,19.29
2016-07-29T05:07:00.672Z,19.41
2016-07-29T05:08:00.671Z,19.52
2016-07-29T05:09:00.673Z,19.42
2016-07-29T05:10:00.671Z,19.42
2016-07-29T05:11:00.672Z,19.42
2016-07-29T05:12:00.680Z,19.52
2016-07-29T05:13:00.675Z,19.52
2016-07-29T05:14:00.676Z,19.57
2016-07-29T05:15:00.675Z,19.49
2016-07-29T05:16:00.680Z,19.52
2016-07-29T05:17:00.680Z,19.57
2016-07-29T05:18:00.679Z,19.53
2016-07-29T05:19:00.687Z,19.56
2016-07-29T05:20:00.683Z,19.48
2016-07-29T05:21:00.684Z,19.55
2016-07-29T05:21:59.979Z,19.45
2016-07-29T05:23:00.683Z,19.52
2016-07-29T05:24:00.688Z,19.48
2016-07-29T05:25:00.688Z,19.45
2016-07-29T05:26:00.692Z,19.45
2016-07-29T05:26:59.993Z,19.48
2016-07-29T05:28:00.688Z,19.45
2016-07-29T05:29:00.688Z,19.48
2016-07-29T05:30:00.693Z,19.45
2016-07-29T05:31:00.692Z,19.44
2016-07-29T05:32:00.692Z,19.37
2016-07-29T05:33:00.692Z,19.42
2016-07-29T05:34:00.696Z,19.45
2016-07-29T05:35:00.696Z,19.45
2016-07-29T05:36:00.696Z,19.41
2016-07-29T05:37:00.696Z,19.52
2016-07-29T05:38:00.702Z,19.57
2016-07-29T05:39:00.704Z,19.56
2016-07-29T05:40:00.713Z,19.66
2016-07-29T05:41:00.705Z,19.64
2016-07-29T05:42:00.700Z,19.62
2016-07-29T05:43:00.706Z,19.62
2016-07-29T05:44:00.704Z,19.7
2016-07-29T05:45:00.705Z,19.7
2016-07-29T05:46:00.705Z,19.71
2016-07-29T05:47:00.705Z,19.71
2016-07-29T05:48:00.709Z,19.64
2016-07-29T05:49:00.712Z,19.71
2016-07-29T05:50:00.716Z,19.71
2016-07-29T05:51:00.710Z,19.7
2016-07-29T05:52:00.713Z,19.6
2016-07-29T05:53:00.713Z,19.6
2016-07-29T05:54:00.713Z,19.57
2016-07-29T05:55:00.714Z,19.71
2016-07-29T05:56:00.714Z,19.63
2016-07-29T05:57:00.717Z,19.6
2016-07-29T05:58:00.719Z,19.64
2016-07-29T05:59:00.717Z,19.71
2016-07-29T06:00:00.718Z,19.7
2016-07-29T06:01:00.722Z,19.78
2016-07-29T06:02:00.721Z,19.89
2016-07-29T06:03:00.726Z,19.85
2016-07-29T06:04:00.722Z,19.94
2016-07-29T06:05:00.722Z,19.97
2016-07-29T06:06:00.726Z,20.1
2016-07-29T06:07:00.726Z,20.17
2016-07-29T06:08:00.726Z,20.33
2016-07-29T06:09:00.734Z,20.3
2016-07-29T06:10:00.726Z,20.34
2016-07-29T06:11:00.730Z,20.48
2016-07-29T06:12:00.729Z,20.5
2016-07-29T06:13:00.741Z,20.46
2016-07-29T06:14:00.730Z,20.44
2016-07-29T06:15:00.734Z,20.44
2016-07-29T06:16:00.734Z,20.48
2016-07-29T06:17:00.734Z,20.44
2016-07-29T06:18:00.733Z,20.46
2016-07-29T06:19:00.738Z,20.46
2016-07-29T06:20:00.034Z,20.49
2016-07-29T06:21:00.738Z,20.49
2016-07-29T06:22:00.738Z,20.37
2016-07-29T06:23:00.738Z,20.36
2016-07-29T06:24:00.742Z,20.36
2016-07-29T06:25:00.297Z,20.44
2016-07-29T06:26:00.742Z,20.53
2016-07-29T06:27:00.743Z,20.53
2016-07-29T06:28:00.958Z,20.63
2016-07-29T06:29:00.746Z,20.68
2016-07-29T06:30:00.746Z,20.7
2016-07-29T06:31:00.746Z,20.78
2016-07-29T06:32:00.746Z,20.88
2016-07-29T06:33:00.751Z,21.07
2016-07-29T06:34:00.750Z,21.14
2016-07-29T06:35:00.750Z,21.26
2016-07-29T06:36:00.751Z,21.4
2016-07-29T06:37:00.755Z,21.53
2016-07-29T06:38:00.754Z,21.66
2016-07-29T06:39:00.755Z,21.96
2016-07-29T06:40:00.755Z,22.15
2016-07-29T06:41:00.755Z,22.51
2016-07-29T06:42:00.759Z,22.73
2016-07-29T06:43:00.759Z,23.1
2016-07-29T06:44:00.759Z,23.44
2016-07-29T06:45:00.759Z,24.01
2016-07-29T06:46:00.767Z,24.82
2016-07-29T06:47:00.810Z,25.58
2016-07-29T06:48:00.763Z,26.27
2016-07-29T06:49:00.763Z,26.92
2016-07-29T06:50:00.768Z,27.53
2016-07-29T06:51:00.768Z,28.37
2016-07-29T06:52:00.775Z,29.44
2016-07-29T06:53:00.780Z,30.7
2016-07-29T06:54:00.767Z,31.85
2016-07-29T06:55:00.776Z,33.16
2016-07-29T06:56:00.776Z,34.28
2016-07-29T06:57:00.772Z,35.25
2016-07-29T06:58:00.772Z,36.2
2016-07-29T06:59:00.775Z,36.73
2016-07-29T07:00:00.783Z,37.15
2016-07-29T07:01:00.776Z,37.11
2016-07-29T07:02:00.780Z,36.75
2016-07-29T07:03:00.789Z,36.43
2016-07-29T07:04:00.779Z,35.94
2016-07-29T07:05:00.784Z,35.44
2016-07-29T07:06:00.780Z,35.16
2016-07-29T07:07:00.780Z,34.51
2016-07-29T07:08:00.796Z,34.04
2016-07-29T07:09:00.784Z,33.5
2016-07-29T07:10:00.784Z,32.83
2016-07-29T07:11:00.785Z,32.3
2016-07-29T07:12:00.788Z,31.81
2016-07-29T07:13:00.800Z,31.63
2016-07-29T07:14:00.789Z,31.63
2016-07-29T07:15:00.791Z,31.86
2016-07-29T07:16:00.792Z,32.15
2016-07-29T07:17:00.792Z,32.34
2016-07-29T07:18:00.794Z,32.35
2016-07-29T07:19:00.797Z,32.46
2016-07-29T07:20:01.096Z,32.82
2016-07-29T07:21:00.796Z,33.54
2016-07-29T07:22:00.796Z,34.32
2016-07-29T07:23:00.808Z,35.23
2016-07-29T07:24:00.800Z,36.32
2016-07-29T07:25:00.801Z,37.22
2016-07-29T07:26:00.805Z,38.12
2016-07-29T07:27:00.805Z,38.72
2016-07-29T07:28:00.805Z,39.33
2016-07-29T07:29:00.804Z,39.94
2016-07-29T07:30:00.820Z,40.39
2016-07-29T07:31:00.809Z,40.85
2016-07-29T07:32:00.109Z,41.27
2016-07-29T07:33:00.813Z,41.64
2016-07-29T07:34:00.817Z,41.74
2016-07-29T07:35:00.813Z,41.88
2016-07-29T07:36:00.820Z,42.03
2016-07-29T07:37:00.816Z,42.18
2016-07-29T07:38:00.816Z,42.37
2016-07-29T07:39:00.821Z,42.59
2016-07-29T07:40:00.820Z,42.74
2016-07-29T07:41:00.822Z,42.94
2016-07-29T07:42:00.122Z,43.28
2016-07-29T07:43:00.830Z,43.5
2016-07-29T07:44:00.833Z,43.81
2016-07-29T07:45:00.877Z,44.04
2016-07-29T07:46:00.829Z,44.09
2016-07-29T07:47:00.829Z,44.1
2016-07-29T07:48:00.833Z,44.07
2016-07-29T07:49:00.833Z,44.13
2016-07-29T07:50:00.840Z,44.19
2016-07-29T07:51:00.837Z,44.07
2016-07-29T07:52:00.837Z,43.77
2016-07-29T07:53:00.142Z,43.54
2016-07-29T07:54:00.848Z,43.35
2016-07-29T07:55:00.842Z,43.25
2016-07-29T07:56:00.846Z,43.07
2016-07-29T07:57:00.877Z,43.05
2016-07-29T07:58:00.850Z,43.07
2016-07-29T07:59:00.849Z,43.31
2016-07-29T08:00:00.852Z,43.46
2016-07-29T08:01:00.854Z,43.58
2016-07-29T08:02:00.854Z,43.54
2016-07-29T08:03:00.858Z,43.43
2016-07-29T08:04:00.858Z,43.25
2016-07-29T08:05:00.866Z,43.24
2016-07-29T08:06:00.862Z,43.39
2016-07-29T08:07:00.169Z,43.34
2016-07-29T08:08:00.870Z,43.25
2016-07-29T08:09:00.866Z,43.28
2016-07-29T08:10:00.872Z,43.25
2016-07-29T08:11:00.869Z,43.38
2016-07-29T08:12:01.270Z,43.46
2016-07-29T08:13:00.870Z,43.44
2016-07-29T08:14:00.874Z,43.41
2016-07-29T08:15:00.875Z,43.41
2016-07-29T08:16:00.878Z,43.58
2016-07-29T08:17:00.878Z,43.56
2016-07-29T08:18:00.882Z,43.43
2016-07-29T08:19:00.882Z,43.36
2016-07-29T08:20:00.882Z,43.24
2016-07-29T08:21:00.886Z,43.24
2016-07-29T08:22:00.886Z,43.11
2016-07-29T08:23:00.891Z,43.09
2016-07-29T08:24:00.890Z,42.9
2016-07-29T08:25:00.890Z,42.9
2016-07-29T08:26:00.895Z,42.77
2016-07-29T08:27:00.898Z,42.66
2016-07-29T08:28:00.897Z,42.34
2016-07-29T08:29:00.899Z,42.03
2016-07-29T08:30:00.903Z,41.76
2016-07-29T08:31:00.902Z,41.51
2016-07-29T08:32:00.910Z,41.37
2016-07-29T08:33:00.918Z,41.29
2016-07-29T08:34:00.909Z,41.07
2016-07-29T08:35:00.910Z,40.83
2016-07-29T08:36:00.923Z,40.69
2016-07-29T08:37:00.914Z,40.59
2016-07-29T08:38:00.919Z,40.28
2016-07-29T08:39:00.923Z,40.05
2016-07-29T08:40:00.919Z,40.05
2016-07-29T08:41:00.218Z,39.94
2016-07-29T08:42:00.922Z,39.91
2016-07-29T08:43:00.930Z,39.91
2016-07-29T08:44:00.926Z,39.54
2016-07-29T08:45:00.935Z,39.33
2016-07-29T08:46:00.942Z,39.26
2016-07-29T08:47:00.935Z,39.03
2016-07-29T08:48:00.934Z,38.84
2016-07-29T08:49:00.234Z,38.47
2016-07-29T08:50:00.938Z,38.07
2016-07-29T08:51:00.946Z,37.56
2016-07-29T08:52:00.946Z,37.16
2016-07-29T08:53:00.947Z,36.88
2016-07-29T08:54:00.947Z,36.65
2016-07-29T08:55:00.951Z,36.47
2016-07-29T08:56:00.950Z,36.18
2016-07-29T08:57:00.962Z,36.05
2016-07-29T08:58:00.956Z,35.81
2016-07-29T08:59:00.963Z,35.78
2016-07-29T09:00:00.962Z,35.71
2016-07-29T09:01:00.963Z,35.74
2016-07-29T09:02:00.963Z,35.69
2016-07-29T09:03:00.967Z,35.63
2016-07-29T09:04:00.976Z,35.56
2016-07-29T09:05:00.970Z,35.52
2016-07-29T09:06:00.975Z,35.44
2016-07-29T09:07:00.974Z,35.34
2016-07-29T09:08:00.975Z,35.44
2016-07-29T09:09:00.983Z,35.68
2016-07-29T09:10:00.979Z,35.75
2016-07-29T09:11:00.984Z,36
2016-07-29T09:12:00.983Z,36.17
2016-07-29T09:13:01.000Z,36.22
2016-07-29T09:14:00.987Z,36.39
2016-07-29T09:15:00.991Z,36.75
2016-07-29T09:16:00.999Z,37.14
2016-07-29T09:17:00.996Z,37.5
2016-07-29T09:18:00.999Z,37.58
2016-07-29T09:19:00.075Z,37.54
2016-07-29T09:20:01.000Z,37.36
2016-07-29T09:21:01.003Z,37.16
2016-07-29T09:22:01.007Z,37.25
2016-07-29T09:23:01.007Z,37.4
2016-07-29T09:24:01.011Z,37.79
2016-07-29T09:25:01.028Z,37.97
2016-07-29T09:26:01.015Z,38.17
2016-07-29T09:27:01.020Z,38.1
2016-07-29T09:28:01.020Z,38.07
2016-07-29T09:29:00.316Z,37.78
2016-07-29T09:30:01.024Z,37.53
2016-07-29T09:31:01.028Z,37.33
2016-07-29T09:32:01.031Z,37.09
2016-07-29T09:33:01.036Z,36.89
2016-07-29T09:35:01.056Z,36.01
2016-07-29T09:36:01.039Z,35.66
2016-07-29T09:37:01.040Z,35.42
2016-07-29T09:38:01.044Z,35.5
2016-07-29T09:39:01.044Z,35.53
2016-07-29T09:40:01.053Z,35.75
2016-07-29T09:41:01.048Z,35.91
2016-07-29T09:42:01.052Z,36.09
2016-07-29T09:43:01.052Z,36.33
2016-07-29T09:44:01.056Z,36.32
2016-07-29T09:45:01.056Z,36.25
2016-07-29T09:46:01.061Z,36.2
2016-07-29T09:47:01.074Z,35.9
2016-07-29T09:48:01.064Z,35.56
2016-07-29T09:50:01.068Z,35.07
2016-07-29T09:51:01.076Z,34.46
2016-07-29T09:52:01.072Z,33.98
2016-07-29T09:53:01.076Z,33.57
2016-07-29T09:54:01.080Z,33.19
2016-07-29T09:55:01.080Z,32.95
2016-07-29T09:56:01.093Z,32.75
2016-07-29T09:57:01.085Z,32.49
2016-07-29T09:58:01.097Z,32.31
2016-07-29T09:59:01.096Z,32.08
2016-07-29T10:00:01.093Z,31.93
2016-07-29T10:01:01.093Z,31.85
2016-07-29T10:02:01.097Z,31.77
2016-07-29T10:03:01.097Z,31.66
2016-07-29T10:05:01.104Z,31.54
2016-07-29T10:06:01.105Z,31.6
2016-07-29T10:07:01.112Z,31.48
2016-07-29T10:08:01.110Z,31.45
2016-07-29T10:09:00.421Z,31.32
2016-07-29T10:10:01.113Z,31.3
2016-07-29T10:11:01.117Z,31.26
2016-07-29T10:12:01.125Z,31.23
2016-07-29T10:13:01.121Z,31.22
2016-07-29T10:14:01.126Z,31.1
2016-07-29T10:15:01.126Z,31.14
2016-07-29T10:16:01.129Z,31.04
2016-07-29T10:17:01.137Z,31.11
2016-07-29T10:18:01.133Z,31.14
2016-07-29T10:19:01.138Z,31.17
2016-07-29T10:20:01.137Z,31.1
2016-07-29T10:21:01.141Z,31.17
2016-07-29T10:22:01.142Z,31.25
2016-07-29T10:23:01.146Z,31.36
2016-07-29T10:24:01.149Z,31.41
2016-07-29T10:25:01.150Z,31.51
2016-07-29T10:26:01.154Z,31.48
2016-07-29T10:27:01.153Z,31.55
2016-07-29T10:28:01.158Z,31.54
2016-07-29T10:29:01.158Z,31.52
2016-07-29T10:30:01.161Z,31.5
2016-07-29T10:31:01.166Z,31.39
2016-07-29T10:32:01.167Z,31.3
2016-07-29T10:33:01.170Z,31.18
2016-07-29T10:34:01.169Z,31.13
2016-07-29T10:35:01.174Z,30.96
2016-07-29T10:36:01.174Z,30.86
2016-07-29T10:37:01.178Z,30.77
2016-07-29T10:38:01.182Z,30.67
2016-07-29T10:39:01.182Z,30.61
2016-07-29T10:40:01.190Z,30.52
2016-07-29T10:41:00.482Z,30.4
2016-07-29T10:42:00.485Z,30.33
2016-07-29T10:43:01.190Z,30.14
2016-07-29T10:44:01.198Z,30.08
2016-07-29T10:45:01.198Z,29.98
2016-07-29T10:46:01.198Z,29.94
2016-07-29T10:47:01.203Z,29.89
2016-07-29T10:48:01.202Z,29.87
2016-07-29T10:49:01.207Z,29.74
2016-07-29T10:50:01.206Z,29.73
2016-07-29T10:51:01.210Z,29.68
2016-07-29T10:52:01.215Z,29.67
2016-07-29T10:53:01.214Z,29.53
2016-07-29T10:54:01.219Z,29.53
2016-07-29T10:55:01.214Z,29.49
2016-07-29T10:56:01.223Z,29.42
2016-07-29T10:57:01.227Z,29.43
2016-07-29T10:58:01.226Z,29.39
2016-07-29T10:59:01.231Z,29.32
2016-07-29T11:00:01.231Z,29.31
2016-07-29T11:01:01.235Z,29.31
2016-07-29T11:02:00.531Z,29.3
2016-07-29T11:02:59.831Z,29.24
2016-07-29T11:04:01.243Z,29.21
2016-07-29T11:05:01.243Z,29.18
2016-07-29T11:06:01.248Z,29.16
2016-07-29T11:07:01.247Z,29.15
2016-07-29T11:08:01.251Z,29.2
2016-07-29T11:09:01.268Z,29.18
2016-07-29T11:10:01.255Z,29.13
2016-07-29T11:11:01.264Z,29.18
2016-07-29T11:12:01.259Z,29.05
2016-07-29T11:13:01.276Z,29.02
2016-07-29T11:14:01.267Z,28.9
2016-07-29T11:15:01.267Z,28.92
2016-07-29T11:16:01.275Z,29.02
2016-07-29T11:17:01.271Z,28.96
2016-07-29T11:18:01.288Z,29
2016-07-29T11:19:01.276Z,29.03
2016-07-29T11:20:01.280Z,29.03
2016-07-29T11:21:01.284Z,28.94
2016-07-29T11:22:01.288Z,28.93
2016-07-29T11:23:01.289Z,28.82
2016-07-29T11:24:01.287Z,28.87
2016-07-29T11:25:01.293Z,28.83
2016-07-29T11:26:01.296Z,28.84
2016-07-29T11:27:01.296Z,28.94
2016-07-29T11:28:01.301Z,28.93
2016-07-29T11:29:01.300Z,29
2016-07-29T11:30:01.311Z,29.03
2016-07-29T11:31:01.304Z,29.12
2016-07-29T11:32:01.312Z,29.16
2016-07-29T11:33:01.312Z,29.22
2016-07-29T11:34:01.313Z,29.3
2016-07-29T11:35:01.316Z,29.22
2016-07-29T11:36:01.320Z,29.32
2016-07-29T11:37:01.320Z,29.4
2016-07-29T11:38:01.329Z,29.39
2016-07-29T11:39:01.325Z,29.44
2016-07-29T11:40:01.328Z,29.46
2016-07-29T11:41:01.329Z,29.42
2016-07-29T11:42:01.332Z,29.42
2016-07-29T11:43:01.337Z,29.39
2016-07-29T11:44:01.345Z,29.37
2016-07-29T11:45:01.341Z,29.28
2016-07-29T11:46:01.341Z,29.21
2016-07-29T11:47:01.345Z,29.1
2016-07-29T11:48:01.345Z,29.15
2016-07-29T11:49:01.349Z,29.21
2016-07-29T11:50:01.352Z,29.16
2016-07-29T11:51:01.353Z,29.21
2016-07-29T11:52:01.357Z,29.2
2016-07-29T11:53:01.356Z,29.27
2016-07-29T11:54:01.362Z,29.27
2016-07-29T11:55:01.369Z,29.15
2016-07-29T11:56:01.364Z,29.21
2016-07-29T11:57:01.369Z,29.13
2016-07-29T11:58:01.369Z,29.1
2016-07-29T11:59:01.372Z,29.12
2016-07-29T12:00:01.374Z,29.09
2016-07-29T12:01:01.377Z,29.16
2016-07-29T12:02:01.393Z,29.13
2016-07-29T12:03:01.381Z,29.25
2016-07-29T12:04:00.682Z,29.3
2016-07-29T12:05:01.386Z,29.25
2016-07-29T12:06:01.389Z,29.24
2016-07-29T12:07:01.389Z,29.28
2016-07-29T12:08:01.393Z,29.3
2016-07-29T12:09:01.397Z,29.15
2016-07-29T12:10:01.398Z,29.21
2016-07-29T12:11:01.401Z,29.2
2016-07-29T12:12:01.406Z,29.18
2016-07-29T12:13:01.406Z,29.18
2016-07-29T12:14:01.409Z,29.12
2016-07-29T12:15:01.410Z,29.07
2016-07-29T12:16:01.414Z,28.96
2016-07-29T12:17:01.421Z,28.97
2016-07-29T12:18:01.418Z,28.92
2016-07-29T12:19:01.422Z,28.87
2016-07-29T12:20:01.421Z,28.89
2016-07-29T12:21:01.429Z,28.74
2016-07-29T12:22:01.426Z,28.75
2016-07-29T12:23:01.429Z,28.71
2016-07-29T12:24:01.434Z,28.62
2016-07-29T12:25:01.434Z,28.67
2016-07-29T12:26:01.439Z,28.71
2016-07-29T12:27:01.446Z,28.72
2016-07-29T12:28:01.442Z,28.71
2016-07-29T12:29:01.442Z,28.71
2016-07-29T12:30:01.446Z,28.68
2016-07-29T12:31:01.450Z,28.65
2016-07-29T12:32:01.455Z,28.67
2016-07-29T12:33:01.454Z,28.59
2016-07-29T12:34:01.465Z,28.65
2016-07-29T12:35:01.459Z,28.64
2016-07-29T12:36:01.459Z,28.67
2016-07-29T12:37:01.462Z,28.72
2016-07-29T12:38:01.467Z,28.72
2016-07-29T12:39:01.467Z,28.68
2016-07-29T12:40:01.470Z,28.6
2016-07-29T12:41:01.471Z,28.56
2016-07-29T12:42:01.474Z,28.59
2016-07-29T12:43:01.479Z,28.6
2016-07-29T12:44:01.479Z,28.57
2016-07-29T12:45:01.483Z,28.57
2016-07-29T12:46:01.487Z,28.65
2016-07-29T12:47:01.540Z,28.59
2016-07-29T12:48:01.491Z,28.55
2016-07-29T12:49:01.499Z,28.5
2016-07-29T12:50:01.496Z,28.6
2016-07-29T12:51:01.500Z,28.56
2016-07-29T12:52:01.499Z,28.57
2016-07-29T12:53:01.504Z,28.59
2016-07-29T12:54:01.512Z,28.55
2016-07-29T12:55:01.508Z,28.52
2016-07-29T12:56:01.512Z,28.56
2016-07-29T12:57:01.512Z,28.55
2016-07-29T12:58:01.516Z,28.6
2016-07-29T12:59:01.516Z,28.56
2016-07-29T13:00:01.519Z,28.56
2016-07-29T13:01:01.524Z,28.57
2016-07-29T13:02:01.524Z,28.59
2016-07-29T13:03:01.532Z,28.6
2016-07-29T13:04:01.528Z,28.57